Back to Top

Language: 

My Weather Underground Personal Weather Station Historical Data with Graphs...

Delerius Weather Station Historical Data
Daily Summary for September 7, 2017 Units:  Metric    English   Both
« Previous Day
Next Day »
Daily Weekly Monthly Yearly Custom
  High: Low: Average:
Temperature: 17.4 °C 11.2 °C 14.5 °C
Dew Point: 13.5 °C 9.9 °C 11.9 °C
Humidity: 93 % 69 % 85 %
Wind Speed: 20.9 km/h 0 km/h 8.7 km/h
Wind Gust: 38.6 km/h - -
Wind:- - SW
Pressure: 1016.8 hPa 1001.2 hPa -
Precipitation: 0 mm    
Historical Graphs
 
 
Tabular Data for September 7, 2017
Time Temperature Dew Point Pressure Wind Wind Speed Wind Gust Humidity Rainfall Rate (Hourly) solar Conditions
00:02 12.6 °C 11 °C 1016.8 hPa Calm     90 % 0.51 mm 0 W/m2
00:07 12.5 °C 10.9 °C 1016.8 hPa Calm     90 % 0.51 mm 0 W/m2
00:12 12.5 °C 10.9 °C 1016.8 hPa Calm     90 % 0.25 mm 0 W/m2
00:17 12.5 °C 11.1 °C 1016.8 hPa Calm     91 % 0.25 mm 0 W/m2
00:21 12.4 °C 10.9 °C 1016.8 hPa Calm     91 % 0.25 mm 0 W/m2
00:26 12.4 °C 11.1 °C 1016.8 hPa Calm     92 % 0 mm 0 W/m2
00:31 12.4 °C 11.1 °C 1016.8 hPa Calm     92 % 0 mm 0 W/m2
00:36 12.4 °C 11.1 °C 1016.8 hPa Calm     92 % 0 mm 0 W/m2
00:41 12.3 °C 11.1 °C 1016.8 hPa Calm   1.6 km/h 92 % 0 mm 0 W/m2
00:46 12.3 °C 11.1 °C 1016.8 hPa Calm   1.6 km/h 92 % 0 mm 0 W/m2
00:51 12.3 °C 11.1 °C 1016.5 hPa Calm     92 % 0 mm 0 W/m2
00:56 12.3 °C 11.1 °C 1016.5 hPa Calm     92 % 0 mm 0 W/m2
01:01 12.3 °C 11.1 °C 1016.5 hPa Calm   4.8 km/h 92 % 0 mm 0 W/m2
01:06 12.3 °C 11.1 °C 1016.5 hPa Calm   6.4 km/h 92 % 0 mm 0 W/m2
01:11 12.3 °C 11.1 °C 1016.1 hPa West 1.6 km/h 6.4 km/h 92 % 0 mm 0 W/m2
01:16 12.2 °C 10.9 °C 1016.1 hPa West 1.6 km/h 6.4 km/h 92 % 0 mm 0 W/m2
01:21 12.2 °C 10.9 °C 1016.1 hPa West 1.6 km/h 8 km/h 92 % 0 mm 0 W/m2
01:26 12.2 °C 10.9 °C 1016.1 hPa West 1.6 km/h 8 km/h 92 % 0 mm 0 W/m2
01:31 12.2 °C 10.9 °C 1016.1 hPa Calm   8 km/h 92 % 0 mm 0 W/m2
01:36 12.3 °C 11.1 °C 1016.1 hPa Calm   8 km/h 92 % 0 mm 0 W/m2
01:39 12.3 °C 10.9 °C 1016.1 hPa Calm   8 km/h 91 % 0 mm 0 W/m2
01:44 12.3 °C 10.9 °C 1015.8 hPa Calm   6.4 km/h 91 % 0 mm 0 W/m2
01:49 12.3 °C 10.9 °C 1015.8 hPa Calm   4.8 km/h 91 % 0 mm 0 W/m2
01:54 12.2 °C 10.8 °C 1015.8 hPa Calm   1.6 km/h 91 % 0 mm 0 W/m2
01:59 12.2 °C 10.8 °C 1015.8 hPa Calm   1.6 km/h 91 % 0 mm 0 W/m2
02:04 12.2 °C 10.8 °C 1015.8 hPa Calm   4.8 km/h 91 % 0 mm 0 W/m2
02:09 12.1 °C 10.5 °C 1015.8 hPa Calm   4.8 km/h 90 % 0 mm 0 W/m2
02:14 12 °C 10.4 °C 1015.8 hPa Calm   3.2 km/h 90 % 0 mm 0 W/m2
02:19 11.9 °C 10.3 °C 1015.8 hPa Calm   6.4 km/h 90 % 0 mm 0 W/m2
02:24 11.8 °C 10.2 °C 1015.8 hPa West 3.2 km/h 11.3 km/h 90 % 0 mm 0 W/m2
02:29 11.8 °C 10.2 °C 1015.8 hPa West 4.8 km/h 11.3 km/h 90 % 0 mm 0 W/m2
02:34 11.7 °C 10.1 °C 1015.5 hPa West 3.2 km/h 9.7 km/h 90 % 0 mm 0 W/m2
02:39 11.7 °C 10.1 °C 1015.5 hPa West 3.2 km/h 9.7 km/h 90 % 0 mm 0 W/m2
02:44 11.7 °C 10.3 °C 1015.5 hPa West 4.8 km/h 11.3 km/h 91 % 0 mm 0 W/m2
02:50 11.7 °C 10.3 °C 1015.5 hPa West 6.4 km/h 11.3 km/h 91 % 0 mm 0 W/m2
02:55 11.7 °C 10.3 °C 1015.5 hPa West 6.4 km/h 11.3 km/h 91 % 0 mm 0 W/m2
03:00 11.7 °C 10.3 °C 1015.1 hPa WSW 3.2 km/h 9.7 km/h 91 % 0 mm 0 W/m2
03:05 11.7 °C 10.3 °C 1015.1 hPa West 1.6 km/h 6.4 km/h 91 % 0 mm 0 W/m2
03:10 11.7 °C 10.3 °C 1015.1 hPa West 1.6 km/h 6.4 km/h 91 % 0 mm 0 W/m2
03:15 11.7 °C 10.3 °C 1015.1 hPa West 1.6 km/h 8 km/h 91 % 0 mm 0 W/m2
03:20 11.7 °C 10.3 °C 1015.1 hPa West 3.2 km/h 9.7 km/h 91 % 0 mm 0 W/m2
03:25 11.8 °C 10.4 °C 1015.1 hPa West 3.2 km/h 9.7 km/h 91 % 0 mm 0 W/m2
03:30 11.8 °C 10.4 °C 1015.1 hPa West 3.2 km/h 8 km/h 91 % 0 mm 0 W/m2
03:35 11.8 °C 10.4 °C 1015.1 hPa West 4.8 km/h 9.7 km/h 91 % 0 mm 0 W/m2
03:40 11.8 °C 10.4 °C 1015.1 hPa West 4.8 km/h 9.7 km/h 91 % 0 mm 0 W/m2
03:45 11.8 °C 10.4 °C 1015.1 hPa West 3.2 km/h 9.7 km/h 91 % 0 mm 0 W/m2
03:46 11.9 °C 10.5 °C 1015.1 hPa West 3.2 km/h 9.7 km/h 91 % 0 mm 0 W/m2
03:51 11.9 °C 10.5 °C 1015.1 hPa West 1.6 km/h 6.4 km/h 91 % 0 mm 0 W/m2
03:56 11.9 °C 10.5 °C 1014.8 hPa West 1.6 km/h 8 km/h 91 % 0 mm 0 W/m2
04:01 11.9 °C 10.5 °C 1014.8 hPa West 3.2 km/h 8 km/h 91 % 0 mm 0 W/m2
04:06 12 °C 10.6 °C 1014.8 hPa West 3.2 km/h 8 km/h 91 % 0 mm 0 W/m2
04:11 12 °C 10.6 °C 1014.8 hPa West 3.2 km/h 8 km/h 91 % 0 mm 0 W/m2
04:17 12.1 °C 10.7 °C 1014.8 hPa WSW 3.2 km/h 11.3 km/h 91 % 0 mm 0 W/m2
04:20 12.1 °C 10.5 °C 1014.8 hPa WSW 6.4 km/h 12.9 km/h 90 % 0 mm 0 W/m2
04:21 12.1 °C 10.5 °C 1014.4 hPa WSW 6.4 km/h 12.9 km/h 90 % 0 mm 0 W/m2
04:26 12.1 °C 10.5 °C 1014.4 hPa SW 6.4 km/h 12.9 km/h 90 % 0 mm 0 W/m2
04:28 12.1 °C 10.5 °C 1014.4 hPa SW 6.4 km/h 12.9 km/h 90 % 0 mm 0 W/m2
04:33 12.1 °C 10.5 °C 1014.4 hPa SW 6.4 km/h 12.9 km/h 90 % 0 mm 0 W/m2
04:38 12.2 °C 10.6 °C 1014.4 hPa SW 8 km/h 16.1 km/h 90 % 0 mm 0 W/m2
04:43 12.3 °C 10.7 °C 1014.1 hPa SSW 9.7 km/h 16.1 km/h 90 % 0 mm 0 W/m2
04:48 12.4 °C 10.6 °C 1014.4 hPa SSW 8 km/h 14.5 km/h 89 % 0 mm 0 W/m2
04:53 12.4 °C 10.6 °C 1014.1 hPa South 6.4 km/h 11.3 km/h 89 % 0 mm 0 W/m2
04:59 12.4 °C 10.6 °C 1014.1 hPa South 4.8 km/h 11.3 km/h 89 % 0 mm 0 W/m2
05:04 12.3 °C 10.6 °C 1013.8 hPa South 3.2 km/h 9.7 km/h 89 % 0 mm 0 W/m2
05:09 12.3 °C 10.6 °C 1013.8 hPa South 1.6 km/h 9.7 km/h 89 % 0 mm 0 W/m2
05:14 12.2 °C 10.4 °C 1013.8 hPa South 1.6 km/h 8 km/h 89 % 0 mm 0 W/m2
05:19 12.2 °C 10.4 °C 1013.8 hPa Calm   6.4 km/h 89 % 0 mm 0 W/m2
05:24 12.1 °C 10.3 °C 1013.8 hPa Calm   3.2 km/h 89 % 0 mm 0 W/m2
05:29 12.1 °C 10.5 °C 1013.8 hPa Calm   3.2 km/h 90 % 0 mm 0 W/m2
05:34 12 °C 10.4 °C 1013.8 hPa Calm     90 % 0 mm 0 W/m2
05:39 11.9 °C 10.3 °C 1014.1 hPa Calm   3.2 km/h 90 % 0 mm 0 W/m2
05:44 11.9 °C 10.3 °C 1014.1 hPa Calm   3.2 km/h 90 % 0 mm 0 W/m2
05:49 11.8 °C 10.2 °C 1014.1 hPa Calm   1.6 km/h 90 % 0 mm 0 W/m2
05:54 11.8 °C 10.2 °C 1014.1 hPa Calm     90 % 0 mm 0 W/m2
05:59 11.7 °C 10.1 °C 1014.1 hPa Calm     90 % 0 mm 0 W/m2
06:04 11.7 °C 10.3 °C 1014.1 hPa Calm     91 % 0 mm 0 W/m2
06:09 11.7 °C 10.3 °C 1014.1 hPa Calm     91 % 0 mm 0 W/m2
06:14 11.7 °C 10.3 °C 1014.1 hPa Calm     91 % 0 mm 0 W/m2
06:19 11.6 °C 10.2 °C 1013.8 hPa Calm     91 % 0 mm 0 W/m2
06:24 11.6 °C 10.2 °C 1013.8 hPa Calm   3.2 km/h 91 % 0 mm 0 W/m2
06:29 11.5 °C 10.1 °C 1013.8 hPa Calm   3.2 km/h 91 % 0 mm 5 W/m2
06:34 11.4 °C 10 °C 1013.4 hPa East 1.6 km/h 8 km/h 91 % 0 mm 9 W/m2
06:39 11.4 °C 10 °C 1013.4 hPa East 1.6 km/h 9.7 km/h 91 % 0 mm 12 W/m2
06:44 11.5 °C 10.1 °C 1013.4 hPa ESE 3.2 km/h 11.3 km/h 91 % 0 mm 16 W/m2
06:49 11.5 °C 10.1 °C 1013.4 hPa SE 4.8 km/h 11.3 km/h 91 % 0 mm 21 W/m2
06:55 11.4 °C 10 °C 1013.8 hPa SE 1.6 km/h 8 km/h 91 % 0 mm 28 W/m2
07:00 11.4 °C 10 °C 1013.8 hPa Calm   1.6 km/h 91 % 0 mm 30 W/m2
07:05 11.3 °C 9.9 °C 1013.8 hPa Calm   1.6 km/h 91 % 0 mm 35 W/m2
07:10 11.3 °C 9.9 °C 1013.8 hPa Calm   1.6 km/h 91 % 0 mm 39 W/m2
07:15 11.3 °C 10.1 °C 1013.4 hPa Calm   1.6 km/h 92 % 0 mm 37 W/m2
07:20 11.2 °C 9.9 °C 1013.4 hPa Calm   1.6 km/h 92 % 0 mm 49 W/m2
07:25 11.3 °C 10.1 °C 1013.4 hPa Calm   3.2 km/h 92 % 0 mm 86 W/m2
07:30 11.4 °C 10.2 °C 1013.4 hPa Calm   6.4 km/h 92 % 0 mm 113 W/m2
07:35 11.6 °C 10.5 °C 1013.1 hPa SE 1.6 km/h 6.4 km/h 93 % 0 mm 107 W/m2
07:40 11.8 °C 10.7 °C 1013.1 hPa Calm   6.4 km/h 93 % 0 mm 81 W/m2
07:45 11.8 °C 10.6 °C 1013.1 hPa Calm   6.4 km/h 92 % 0 mm 90 W/m2
07:50 11.9 °C 10.7 °C 1013.1 hPa SSE 1.6 km/h 8 km/h 92 % 0 mm 88 W/m2
07:55 12 °C 10.7 °C 1013.1 hPa SSW 1.6 km/h 8 km/h 92 % 0 mm 77 W/m2
08:00 12.1 °C 10.8 °C 1013.1 hPa South 1.6 km/h 16.1 km/h 92 % 0 mm 72 W/m2
08:05 12.2 °C 10.9 °C 1013.1 hPa South 3.2 km/h 16.1 km/h 92 % 0 mm 70 W/m2
08:10 12.3 °C 11.1 °C 1013.1 hPa South 3.2 km/h 12.9 km/h 92 % 0 mm 142 W/m2
08:15 12.4 °C 11.1 °C 1013.1 hPa South 3.2 km/h 11.3 km/h 92 % 0 mm 171 W/m2
08:20 12.7 °C 11.4 °C 1013.1 hPa SSW 1.6 km/h 8 km/h 92 % 0 mm 207 W/m2
08:25 13 °C 11.6 °C 1012.8 hPa South 1.6 km/h 11.3 km/h 91 % 0 mm 260 W/m2
08:30 13.2 °C 11.6 °C 1012.8 hPa South 1.6 km/h 11.3 km/h 90 % 0 mm 322 W/m2
08:31 13.3 °C 11.7 °C 1012.8 hPa South 1.6 km/h 11.3 km/h 90 % 0 mm 330 W/m2
08:36 13.6 °C 11.8 °C 1012.4 hPa SSE 3.2 km/h 11.3 km/h 89 % 0 mm 362 W/m2
08:41 13.9 °C 11.9 °C 1012.4 hPa SSE 4.8 km/h 12.9 km/h 88 % 0 mm 327 W/m2
08:46 14.2 °C 12.1 °C 1012.4 hPa South 3.2 km/h 12.9 km/h 87 % 0 mm 255 W/m2
08:51 14.3 °C 12 °C 1012.8 hPa SW 8 km/h 17.7 km/h 86 % 0 mm 308 W/m2
08:56 14.4 °C 11.9 °C 1012.8 hPa SW 11.3 km/h 19.3 km/h 85 % 0 mm 193 W/m2
09:01 14.4 °C 11.9 °C 1012.8 hPa SW 11.3 km/h 19.3 km/h 85 % 0 mm 195 W/m2
09:06 14.4 °C 11.7 °C 1013.1 hPa SW 11.3 km/h 20.9 km/h 84 % 0 mm 179 W/m2
09:11 14.4 °C 11.7 °C 1013.1 hPa SW 12.9 km/h 22.5 km/h 84 % 0 mm 148 W/m2
09:16 14.4 °C 11.7 °C 1013.1 hPa SW 14.5 km/h 22.5 km/h 84 % 0 mm 120 W/m2
09:21 14.3 °C 11.6 °C 1012.8 hPa SW 14.5 km/h 22.5 km/h 84 % 0 mm 141 W/m2
09:26 14.3 °C 11.6 °C 1012.8 hPa SW 14.5 km/h 20.9 km/h 84 % 0 mm 149 W/m2
09:31 14.3 °C 11.6 °C 1012.8 hPa SW 11.3 km/h 19.3 km/h 84 % 0 mm 134 W/m2
09:36 14.3 °C 11.6 °C 1012.8 hPa SSW 9.7 km/h 19.3 km/h 84 % 0 mm 118 W/m2
09:41 14.3 °C 11.6 °C 1012.4 hPa SW 9.7 km/h 17.7 km/h 84 % 0 mm 200 W/m2
09:46 14.3 °C 11.8 °C 1012.4 hPa SSW 9.7 km/h 17.7 km/h 85 % 0 mm 239 W/m2
09:51 14.4 °C 11.7 °C 1012.1 hPa SSW 11.3 km/h 17.7 km/h 84 % 0 mm 250 W/m2
09:56 14.4 °C 11.7 °C 1012.1 hPa SSW 9.7 km/h 17.7 km/h 84 % 0 mm 227 W/m2
10:01 14.5 °C 11.8 °C 1012.1 hPa SSW 9.7 km/h 17.7 km/h 84 % 0 mm 243 W/m2
10:06 14.6 °C 12.1 °C 1012.1 hPa SSW 6.4 km/h 17.7 km/h 85 % 0 mm 403 W/m2
10:11 14.9 °C 12.4 °C 1012.1 hPa South 3.2 km/h 9.7 km/h 85 % 0 mm 316 W/m2
10:16 15.2 °C 12.5 °C 1011.7 hPa SSE 4.8 km/h 12.9 km/h 84 % 0 mm 232 W/m2
10:21 15.4 °C 12.5 °C 1011.7 hPa South 8 km/h 16.1 km/h 83 % 0 mm 271 W/m2
10:26 15.6 °C 12.6 °C 1011.7 hPa SSW 8 km/h 16.1 km/h 82 % 0 mm 271 W/m2
10:31 15.9 °C 12.7 °C 1011.4 hPa SSW 8 km/h 14.5 km/h 81 % 0 mm 448 W/m2
10:36 16.1 °C 12.7 °C 1011.4 hPa SSW 8 km/h 14.5 km/h 80 % 0 mm 271 W/m2
10:41 16.1 °C 12.4 °C 1011.4 hPa South 9.7 km/h 17.7 km/h 79 % 0 mm 278 W/m2
10:46 16.2 °C 12.6 °C 1011.1 hPa South 9.7 km/h 17.7 km/h 79 % 0 mm 322 W/m2
10:51 16.3 °C 12.3 °C 1011.4 hPa South 8 km/h 14.5 km/h 77 % 0 mm 213 W/m2
10:56 16.4 °C 11.9 °C 1011.4 hPa SW 11.3 km/h 19.3 km/h 75 % 0 mm 185 W/m2
11:01 16.5 °C 11.8 °C 1011.4 hPa WSW 11.3 km/h 19.3 km/h 74 % 0 mm 162 W/m2
11:06 16.6 °C 11.7 °C 1011.4 hPa West 11.3 km/h 22.5 km/h 73 % 0 mm 181 W/m2
11:11 16.7 °C 11.8 °C 1011.1 hPa West 12.9 km/h 29 km/h 73 % 0 mm 211 W/m2
11:16 16.7 °C 11.8 °C 1011.1 hPa West 12.9 km/h 29 km/h 73 % 0 mm 223 W/m2
11:21 16.7 °C 11.6 °C 1011.1 hPa West 11.3 km/h 17.7 km/h 72 % 0 mm 248 W/m2
11:26 16.7 °C 11.6 °C 1011.1 hPa West 11.3 km/h 19.3 km/h 72 % 0 mm 244 W/m2
11:31 16.8 °C 11.5 °C 1011.1 hPa WSW 12.9 km/h 22.5 km/h 71 % 0 mm 295 W/m2
11:36 16.8 °C 11.5 °C 1011.1 hPa West 14.5 km/h 29 km/h 71 % 0 mm 306 W/m2
11:41 16.8 °C 11.3 °C 1011.1 hPa West 14.5 km/h 32.2 km/h 70 % 0 mm 287 W/m2
11:46 16.9 °C 11.6 °C 1010.7 hPa West 16.1 km/h 32.2 km/h 71 % 0 mm 759 W/m2
11:51 17.2 °C 11.9 °C 1010.7 hPa West 16.1 km/h 29 km/h 71 % 0 mm 642 W/m2
11:56 17.4 °C 11.7 °C 1010.7 hPa West 19.3 km/h 38.6 km/h 69 % 0 mm 318 W/m2
12:01 17.2 °C 11.7 °C 1010.7 hPa West 20.9 km/h 38.6 km/h 70 % 0 mm 302 W/m2
12:06 17 °C 11.5 °C 1010.7 hPa West 20.9 km/h 35.4 km/h 70 % 0 mm 323 W/m2
12:11 16.9 °C 11.4 °C 1010.4 hPa West 20.9 km/h 33.8 km/h 70 % 0 mm 410 W/m2
12:16 17 °C 11.9 °C 1010.4 hPa West 17.7 km/h 29 km/h 72 % 0 mm 478 W/m2
12:21 17.2 °C 12.1 °C 1010 hPa West 14.5 km/h 25.7 km/h 72 % 0 mm 380 W/m2
12:26 17.3 °C 11.8 °C 1010 hPa WSW 12.9 km/h 25.7 km/h 70 % 0 mm 371 W/m2
12:31 17.2 °C 11.9 °C 1010 hPa WSW 16.1 km/h 25.7 km/h 71 % 0 mm 413 W/m2
12:36 17.2 °C 11.9 °C 1010 hPa WSW 17.7 km/h 32.2 km/h 71 % 0 mm 359 W/m2
12:41 17.2 °C 11.9 °C 1010 hPa WSW 17.7 km/h 32.2 km/h 71 % 0 mm 339 W/m2
12:46 17.1 °C 11.8 °C 1010 hPa WSW 17.7 km/h 25.7 km/h 71 % 0 mm 378 W/m2
12:52 17.2 °C 12.1 °C 1009.7 hPa WSW 17.7 km/h 29 km/h 72 % 0 mm 381 W/m2
12:57 17.2 °C 11.9 °C 1009.7 hPa WSW 17.7 km/h 32.2 km/h 71 % 0 mm 299 W/m2
13:02 17.3 °C 12.2 °C 1009.7 hPa WSW 17.7 km/h 32.2 km/h 72 % 0 mm 496 W/m2
13:07 17.4 °C 12.3 °C 1009.7 hPa WSW 14.5 km/h 22.5 km/h 72 % 0 mm 381 W/m2
13:12 17.4 °C 12.1 °C 1009.7 hPa WSW 16.1 km/h 25.7 km/h 71 % 0 mm 207 W/m2
13:17 17.4 °C 12.3 °C 1009.7 hPa WSW 16.1 km/h 25.7 km/h 72 % 0 mm 244 W/m2
13:22 17.3 °C 12.2 °C 1009.7 hPa WSW 14.5 km/h 24.1 km/h 72 % 0 mm 116 W/m2
13:27 17.1 °C 12.2 °C 1009.7 hPa SW 12.9 km/h 24.1 km/h 73 % 0 mm 132 W/m2
13:32 16.9 °C 12.2 °C 1009.7 hPa SW 14.5 km/h 24.1 km/h 74 % 0 mm 105 W/m2
13:37 16.8 °C 12.1 °C 1009.4 hPa SW 14.5 km/h 25.7 km/h 74 % 0 mm 137 W/m2
13:42 16.8 °C 12.1 °C 1009.4 hPa WSW 14.5 km/h 25.7 km/h 74 % 0 mm 153 W/m2
13:47 16.8 °C 12.1 °C 1009.4 hPa WSW 12.9 km/h 24.1 km/h 74 % 0 mm 160 W/m2
13:52 16.8 °C 12.3 °C 1009.4 hPa SW 11.3 km/h 17.7 km/h 75 % 0 mm 88 W/m2
13:57 16.8 °C 12.3 °C 1009 hPa SSW 9.7 km/h 19.3 km/h 75 % 0 mm 70 W/m2
14:02 16.7 °C 12.2 °C 1009 hPa SW 11.3 km/h 24.1 km/h 75 % 0 mm 65 W/m2
14:05 16.7 °C 12.2 °C 1009 hPa SW 14.5 km/h 29 km/h 75 % 0 mm 60 W/m2
14:10 16.7 °C 12.4 °C 1009 hPa SW 12.9 km/h 29 km/h 76 % 0 mm 49 W/m2
14:15 16.6 °C 12.3 °C 1008.7 hPa SW 8 km/h 25.7 km/h 76 % 0 mm 56 W/m2
14:20 16.6 °C 12.3 °C 1009 hPa SW 6.4 km/h 14.5 km/h 76 % 0 mm 62 W/m2
14:25 16.6 °C 12.3 °C 1009 hPa SW 9.7 km/h 16.1 km/h 76 % 0 mm 67 W/m2
14:30 16.6 °C 12.3 °C 1009 hPa SW 11.3 km/h 19.3 km/h 76 % 0 mm 63 W/m2
14:35 16.5 °C 12.3 °C 1008.7 hPa SW 11.3 km/h 19.3 km/h 76 % 0 mm 62 W/m2
14:40 16.5 °C 12.4 °C 1008.7 hPa SW 11.3 km/h 19.3 km/h 77 % 0 mm 49 W/m2
14:45 16.4 °C 12.3 °C 1008.7 hPa SW 11.3 km/h 17.7 km/h 77 % 0 mm 40 W/m2
14:50 16.4 °C 12.3 °C 1008.4 hPa SW 11.3 km/h 20.9 km/h 77 % 0 mm 44 W/m2
14:55 16.3 °C 12.3 °C 1008.4 hPa SSW 11.3 km/h 20.9 km/h 77 % 0 mm 67 W/m2
15:00 16.3 °C 12.4 °C 1008 hPa SSW 12.9 km/h 24.1 km/h 78 % 0 mm 97 W/m2
15:05 16.3 °C 12.8 °C 1008 hPa SSW 11.3 km/h 24.1 km/h 80 % 0 mm 65 W/m2
15:10 16.2 °C 12.9 °C 1008 hPa SSW 9.7 km/h 16.1 km/h 81 % 0 mm 58 W/m2
15:15 16.2 °C 12.9 °C 1007.7 hPa South 8 km/h 16.1 km/h 81 % 0 mm 54 W/m2
15:21 16.1 °C 13 °C 1007.7 hPa South 8 km/h 16.1 km/h 82 % 0 mm 102 W/m2
15:26 16.1 °C 13 °C 1007.7 hPa SSW 9.7 km/h 32.2 km/h 82 % 0 mm 95 W/m2
15:31 16.2 °C 12.9 °C 1007.7 hPa SW 12.9 km/h 32.2 km/h 81 % 0 mm 69 W/m2
15:36 16.3 °C 12.8 °C 1007.7 hPa SW 16.1 km/h 32.2 km/h 80 % 0 mm 93 W/m2
15:41 16.3 °C 12.8 °C 1007.7 hPa SW 19.3 km/h 32.2 km/h 80 % 0 mm 127 W/m2
15:46 16.4 °C 12.9 °C 1007.7 hPa SW 19.3 km/h 33.8 km/h 80 % 0 mm 118 W/m2
15:51 16.5 °C 12.8 °C 1007.7 hPa SW 19.3 km/h 35.4 km/h 79 % 0 mm 111 W/m2
15:56 16.5 °C 12.8 °C 1007.3 hPa WSW 17.7 km/h 35.4 km/h 79 % 0 mm 135 W/m2
16:01 16.6 °C 12.9 °C 1007.3 hPa WSW 16.1 km/h 29 km/h 79 % 0 mm 111 W/m2
16:06 16.6 °C 12.7 °C 1007.3 hPa WSW 19.3 km/h 37 km/h 78 % 0 mm 86 W/m2
16:11 16.7 °C 12.7 °C 1007.3 hPa WSW 19.3 km/h 37 km/h 77 % 0 mm 63 W/m2
16:16 16.7 °C 12.8 °C 1007 hPa WSW 16.1 km/h 30.6 km/h 78 % 0 mm 62 W/m2
16:21 16.7 °C 12.7 °C 1007.3 hPa WSW 16.1 km/h 33.8 km/h 77 % 0 mm 79 W/m2
16:26 16.7 °C 12.7 °C 1007.3 hPa SW 17.7 km/h 33.8 km/h 77 % 0 mm 70 W/m2
16:31 16.7 °C 12.7 °C 1007 hPa SW 16.1 km/h 30.6 km/h 77 % 0 mm 93 W/m2
16:36 16.8 °C 12.9 °C 1007 hPa SW 14.5 km/h 24.1 km/h 78 % 0 mm 109 W/m2
16:41 16.8 °C 12.9 °C 1007 hPa SW 11.3 km/h 20.9 km/h 78 % 0 mm 69 W/m2
16:46 16.8 °C 13.1 °C 1007 hPa SW 12.9 km/h 20.9 km/h 79 % 0 mm 69 W/m2
16:51 16.7 °C 13.1 °C 1006.7 hPa SW 14.5 km/h 22.5 km/h 79 % 0 mm 123 W/m2
16:56 16.6 °C 13.1 °C 1006.7 hPa SW 14.5 km/h 22.5 km/h 80 % 0 mm 118 W/m2
17:01 16.5 °C 13.1 °C 1006.7 hPa SW 16.1 km/h 29 km/h 80 % 0 mm 121 W/m2
17:06 16.4 °C 13.1 °C 1006.7 hPa SW 17.7 km/h 30.6 km/h 81 % 0 mm 105 W/m2
17:11 16.3 °C 13.2 °C 1006.3 hPa SW 17.7 km/h 30.6 km/h 82 % 0 mm 97 W/m2
17:16 16.1 °C 13.2 °C 1006.7 hPa SW 16.1 km/h 29 km/h 83 % 0 mm 114 W/m2
17:21 15.9 °C 13.2 °C 1006.7 hPa SW 14.5 km/h 24.1 km/h 84 % 0 mm 113 W/m2
17:26 15.9 °C 13.2 °C 1006.3 hPa SW 14.5 km/h 22.5 km/h 84 % 0 mm 63 W/m2
17:31 15.9 °C 13.2 °C 1006.3 hPa SW 12.9 km/h 22.5 km/h 84 % 0 mm 42 W/m2
17:36 15.8 °C 13.1 °C 1006 hPa SSW 14.5 km/h 25.7 km/h 84 % 0 mm 79 W/m2
17:41 15.8 °C 13.1 °C 1005.6 hPa SSW 19.3 km/h 37 km/h 84 % 0 mm 91 W/m2
17:46 15.8 °C 13.1 °C 1005.6 hPa SSW 20.9 km/h 37 km/h 84 % 0 mm 74 W/m2
17:51 15.8 °C 13.1 °C 1005.6 hPa SW 17.7 km/h 35.4 km/h 84 % 0 mm 53 W/m2
17:56 15.7 °C 13 °C 1005.6 hPa SW 16.1 km/h 30.6 km/h 84 % 0 mm 40 W/m2
18:01 15.7 °C 13.2 °C 1005.6 hPa SW 16.1 km/h 30.6 km/h 85 % 0 mm 37 W/m2
18:06 15.7 °C 13.2 °C 1005.6 hPa SW 12.9 km/h 24.1 km/h 85 % 0 mm 26 W/m2
18:11 15.7 °C 13.2 °C 1005.3 hPa SSW 12.9 km/h 24.1 km/h 85 % 0 mm 16 W/m2
18:16 15.7 °C 13.2 °C 1005.3 hPa SW 14.5 km/h 24.1 km/h 85 % 0 mm 11 W/m2
18:21 15.7 °C 13.2 °C 1005.3 hPa SW 14.5 km/h 24.1 km/h 85 % 0 mm 11 W/m2
18:26 15.6 °C 13.3 °C 1005 hPa SSW 14.5 km/h 22.5 km/h 86 % 0 mm 12 W/m2
18:31 15.6 °C 13.3 °C 1005 hPa SSW 14.5 km/h 20.9 km/h 86 % 0 mm 9 W/m2
18:36 15.5 °C 13.2 °C 1005 hPa SSW 12.9 km/h 22.5 km/h 86 % 0 mm 14 W/m2
18:41 15.5 °C 13.2 °C 1005 hPa SSW 14.5 km/h 24.1 km/h 86 % 0 mm 14 W/m2
18:46 15.5 °C 13.3 °C 1005 hPa SSW 14.5 km/h 24.1 km/h 87 % 0 mm 12 W/m2
18:51 15.4 °C 13.2 °C 1005 hPa SSW 14.5 km/h 22.5 km/h 87 % 0 mm 7 W/m2
18:56 15.4 °C 13.2 °C 1004.6 hPa SSW 14.5 km/h 22.5 km/h 87 % 0 mm 9 W/m2
19:01 15.4 °C 13.4 °C 1004.6 hPa SSW 12.9 km/h 20.9 km/h 88 % 0 mm 11 W/m2
19:06 15.3 °C 13.3 °C 1004.6 hPa SSW 11.3 km/h 20.9 km/h 88 % 0 mm 12 W/m2
19:11 15.3 °C 13.5 °C 1004.3 hPa SW 12.9 km/h 24.1 km/h 89 % 0 mm 14 W/m2
19:16 15.2 °C 13.4 °C 1004.3 hPa SW 12.9 km/h 24.1 km/h 89 % 0 mm 9 W/m2
19:21 15.2 °C 13.4 °C 1004.3 hPa SW 12.9 km/h 20.9 km/h 89 % 0 mm 0 W/m2
19:26 15.2 °C 13.4 °C 1003.9 hPa SW 12.9 km/h 20.9 km/h 89 % 0 mm 0 W/m2
19:31 15.2 °C 13.4 °C 1003.6 hPa SSW 12.9 km/h 24.1 km/h 89 % 0 mm 0 W/m2
19:36 15.2 °C 13.4 °C 1003.6 hPa SSW 16.1 km/h 30.6 km/h 89 % 0 mm 0 W/m2
19:41 15.2 °C 13.4 °C 1003.9 hPa SW 17.7 km/h 30.6 km/h 89 % 0 mm 0 W/m2
19:46 15.3 °C 13.5 °C 1004.3 hPa SW 14.5 km/h 29 km/h 89 % 0 mm 0 W/m2
19:51 15.3 °C 13.5 °C 1004.3 hPa SW 12.9 km/h 22.5 km/h 89 % 0 mm 0 W/m2
19:56 15.3 °C 13.3 °C 1003.9 hPa SW 11.3 km/h 19.3 km/h 88 % 0 mm 0 W/m2
20:01 15.3 °C 13.3 °C 1003.9 hPa SW 9.7 km/h 19.3 km/h 88 % 0 mm 0 W/m2
20:06 15.3 °C 13.3 °C 1003.9 hPa SW 6.4 km/h 14.5 km/h 88 % 0 mm 0 W/m2
20:11 15.3 °C 13.3 °C 1003.9 hPa SW 6.4 km/h 12.9 km/h 88 % 0 mm 0 W/m2
20:16 15.3 °C 13.3 °C 1003.9 hPa SW 6.4 km/h 12.9 km/h 88 % 0 mm 0 W/m2
20:21 15.3 °C 13.3 °C 1003.9 hPa SW 6.4 km/h 16.1 km/h 88 % 0 mm 0 W/m2
20:26 15.3 °C 13.3 °C 1003.9 hPa SW 6.4 km/h 16.1 km/h 88 % 0 mm 0 W/m2
20:31 15.4 °C 13.4 °C 1003.9 hPa SW 6.4 km/h 11.3 km/h 88 % 0 mm 0 W/m2
20:36 15.4 °C 13.2 °C 1003.9 hPa SW 6.4 km/h 16.1 km/h 87 % 0 mm 0 W/m2
20:41 15.4 °C 13.2 °C 1003.9 hPa SW 6.4 km/h 16.1 km/h 87 % 0 mm 0 W/m2
20:47 15.4 °C 13.2 °C 1003.9 hPa SW 8 km/h 20.9 km/h 87 % 0 mm 0 W/m2
20:51 15.5 °C 13.2 °C 1003.6 hPa WSW 11.3 km/h 20.9 km/h 86 % 0 mm 0 W/m2
20:57 15.6 °C 13.3 °C 1003.6 hPa WSW 11.3 km/h 20.9 km/h 86 % 0 mm 0 W/m2
21:02 15.6 °C 13.1 °C 1003.6 hPa SW 11.3 km/h 20.9 km/h 85 % 0 mm 0 W/m2
21:07 15.7 °C 13.2 °C 1003.6 hPa SW 11.3 km/h 29 km/h 85 % 0 mm 0 W/m2
21:12 15.7 °C 13.2 °C 1003.6 hPa WSW 17.7 km/h 29 km/h 85 % 0 mm 0 W/m2
21:17 15.7 °C 13.2 °C 1003.3 hPa SW 16.1 km/h 29 km/h 85 % 0 mm 0 W/m2
21:22 15.6 °C 13.1 °C 1003.3 hPa SW 12.9 km/h 22.5 km/h 85 % 0 mm 0 W/m2
21:27 15.6 °C 13.1 °C 1003.3 hPa WSW 14.5 km/h 30.6 km/h 85 % 0 mm 0 W/m2
21:32 15.6 °C 13.1 °C 1003.3 hPa WSW 14.5 km/h 30.6 km/h 85 % 0 mm 0 W/m2
21:37 15.5 °C 13 °C 1003.3 hPa WSW 14.5 km/h 30.6 km/h 85 % 0 mm 0 W/m2
21:42 15.5 °C 13 °C 1003.3 hPa WSW 14.5 km/h 30.6 km/h 85 % 0 mm 0 W/m2
21:47 15.4 °C 12.9 °C 1002.9 hPa WSW 14.5 km/h 32.2 km/h 85 % 0 mm 0 W/m2
21:52 15.4 °C 12.9 °C 1002.9 hPa WSW 16.1 km/h 32.2 km/h 85 % 0 mm 0 W/m2
21:57 15.4 °C 12.9 °C 1002.9 hPa WSW 14.5 km/h 24.1 km/h 85 % 0 mm 0 W/m2
21:59 15.4 °C 12.9 °C 1002.9 hPa WSW 14.5 km/h 22.5 km/h 85 % 0 mm 0 W/m2
22:04 15.4 °C 12.7 °C 1002.9 hPa WSW 12.9 km/h 24.1 km/h 84 % 0 mm 0 W/m2
22:09 15.5 °C 12.8 °C 1002.9 hPa WSW 14.5 km/h 24.1 km/h 84 % 0 mm 0 W/m2
22:14 15.4 °C 12.7 °C 1002.6 hPa WSW 11.3 km/h 22.5 km/h 84 % 0 mm 0 W/m2
22:19 15.4 °C 12.7 °C 1002.6 hPa WSW 9.7 km/h 19.3 km/h 84 % 0 mm 0 W/m2
22:24 15.4 °C 12.7 °C 1002.6 hPa WSW 11.3 km/h 19.3 km/h 84 % 0 mm 0 W/m2
22:29 15.4 °C 12.7 °C 1002.3 hPa WSW 9.7 km/h 19.3 km/h 84 % 0 mm 0 W/m2
22:34 15.4 °C 12.7 °C 1002.3 hPa WSW 8 km/h 17.7 km/h 84 % 0 mm 0 W/m2
22:39 15.4 °C 12.7 °C 1002.3 hPa WSW 8 km/h 14.5 km/h 84 % 0 mm 0 W/m2
22:44 15.4 °C 12.7 °C 1002.3 hPa SW 8 km/h 16.1 km/h 84 % 0 mm 0 W/m2
22:49 15.3 °C 12.6 °C 1002.3 hPa WSW 9.7 km/h 17.7 km/h 84 % 0 mm 0 W/m2
22:54 15.4 °C 12.7 °C 1002.3 hPa WSW 11.3 km/h 19.3 km/h 84 % 0 mm 0 W/m2
22:55 15.4 °C 12.7 °C 1002.3 hPa WSW 11.3 km/h 19.3 km/h 84 % 0 mm 0 W/m2
23:00 15.4 °C 12.7 °C 1001.9 hPa WSW 11.3 km/h 19.3 km/h 84 % 0 mm 0 W/m2
23:05 15.4 °C 12.7 °C 1001.9 hPa WSW 9.7 km/h 16.1 km/h 84 % 0 mm 0 W/m2
23:10 15.4 °C 12.7 °C 1001.9 hPa WSW 9.7 km/h 20.9 km/h 84 % 0 mm 0 W/m2
23:15 15.4 °C 12.7 °C 1001.9 hPa WSW 9.7 km/h 22.5 km/h 84 % 0 mm 0 W/m2
23:20 15.4 °C 12.7 °C 1001.9 hPa WSW 11.3 km/h 22.5 km/h 84 % 0 mm 0 W/m2
23:25 15.4 °C 12.7 °C 1001.6 hPa SW 9.7 km/h 17.7 km/h 84 % 0 mm 0 W/m2
23:30 15.4 °C 12.7 °C 1001.6 hPa WSW 8 km/h 17.7 km/h 84 % 0 mm 0 W/m2
23:35 15.4 °C 12.7 °C 1001.6 hPa WSW 9.7 km/h 19.3 km/h 84 % 0 mm 0 W/m2
23:40 15.4 °C 12.7 °C 1001.6 hPa WSW 11.3 km/h 20.9 km/h 84 % 0 mm 0 W/m2
23:41 15.3 °C 12.6 °C 1001.6 hPa WSW 12.9 km/h 20.9 km/h 84 % 0 mm 0 W/m2
23:46 15.4 °C 12.7 °C 1001.2 hPa SW 12.9 km/h 24.1 km/h 84 % 0 mm 0 W/m2
23:51 15.4 °C 12.7 °C 1001.2 hPa SW 9.7 km/h 24.1 km/h 84 % 0 mm 0 W/m2
23:56 15.4 °C 12.7 °C 1001.2 hPa WSW 8 km/h 19.3 km/h 84 % 0 mm 0 W/m2
Delerius-Weather
Compliments of Weather Underground - 2.25 mb

Data updates at regular intervals.